sensor_id;sensor_type;location;lat;lon;timestamp;temperature;humidity
22852;DHT22;11592;45.460;9.240;2022-12-20T00:01:18;6.80;99.90
22852;DHT22;11592;45.460;9.240;2022-12-20T00:03:47;6.90;99.90
22852;DHT22;11592;45.460;9.240;2022-12-20T00:06:14;7.00;99.90
22852;DHT22;11592;45.460;9.240;2022-12-20T00:08:41;7.10;99.90
22852;DHT22;11592;45.460;9.240;2022-12-20T00:11:08;7.10;99.90
22852;DHT22;11592;45.460;9.240;2022-12-20T00:13:36;7.10;99.90
22852;DHT22;11592;45.460;9.240;2022-12-20T00:16:05;7.10;99.90
22852;DHT22;11592;45.460;9.240;2022-12-20T00:18:32;7.00;99.90
22852;DHT22;11592;45.460;9.240;2022-12-20T00:21:00;7.00;99.90
22852;DHT22;11592;45.460;9.240;2022-12-20T00:23:28;7.10;99.90
22852;DHT22;11592;45.460;9.240;2022-12-20T00:28:32;7.20;99.90
22852;DHT22;11592;45.460;9.240;2022-12-20T00:31:00;7.20;99.90
22852;DHT22;11592;45.460;9.240;2022-12-20T00:33:27;7.30;99.90
22852;DHT22;11592;45.460;9.240;2022-12-20T00:35:55;7.30;99.90
22852;DHT22;11592;45.460;9.240;2022-12-20T00:38:23;7.30;99.90
22852;DHT22;11592;45.460;9.240;2022-12-20T00:41:05;7.30;99.90
22852;DHT22;11592;45.460;9.240;2022-12-20T00:43:32;7.30;99.90
22852;DHT22;11592;45.460;9.240;2022-12-20T00:46:00;7.30;99.90
22852;DHT22;11592;45.460;9.240;2022-12-20T00:48:28;7.10;99.90
22852;DHT22;11592;45.460;9.240;2022-12-20T00:51:07;6.80;99.90
22852;DHT22;11592;45.460;9.240;2022-12-20T00:53:35;6.70;99.90
22852;DHT22;11592;45.460;9.240;2022-12-20T00:56:03;6.80;99.90
22852;DHT22;11592;45.460;9.240;2022-12-20T00:58:35;6.90;99.90
22852;DHT22;11592;45.460;9.240;2022-12-20T01:01:03;7.00;99.90
22852;DHT22;11592;45.460;9.240;2022-12-20T01:03:30;7.10;99.90
22852;DHT22;11592;45.460;9.240;2022-12-20T01:06:01;7.20;99.90
22852;DHT22;11592;45.460;9.240;2022-12-20T01:08:29;6.90;99.90
22852;DHT22;11592;45.460;9.240;2022-12-20T01:11:03;6.70;99.90
22852;DHT22;11592;45.460;9.240;2022-12-20T01:13:33;6.90;99.90
22852;DHT22;11592;45.460;9.240;2022-12-20T01:16:07;6.90;99.90
22852;DHT22;11592;45.460;9.240;2022-12-20T01:18:34;7.00;99.90
22852;DHT22;11592;45.460;9.240;2022-12-20T01:21:03;7.00;99.90
22852;DHT22;11592;45.460;9.240;2022-12-20T01:23:31;6.90;99.90
22852;DHT22;11592;45.460;9.240;2022-12-20T01:25:59;6.90;99.90
22852;DHT22;11592;45.460;9.240;2022-12-20T01:28:27;6.90;99.90
22852;DHT22;11592;45.460;9.240;2022-12-20T01:30:54;7.00;99.90
22852;DHT22;11592;45.460;9.240;2022-12-20T01:33:21;7.00;99.90
22852;DHT22;11592;45.460;9.240;2022-12-20T01:35:57;7.10;99.90
22852;DHT22;11592;45.460;9.240;2022-12-20T01:38:24;7.00;99.90
22852;DHT22;11592;45.460;9.240;2022-12-20T01:40:51;6.80;99.90
22852;DHT22;11592;45.460;9.240;2022-12-20T01:43:20;6.70;99.90
22852;DHT22;11592;45.460;9.240;2022-12-20T01:45:47;6.60;99.90
22852;DHT22;11592;45.460;9.240;2022-12-20T01:48:21;6.50;99.90
22852;DHT22;11592;45.460;9.240;2022-12-20T01:50:50;6.70;99.90
22852;DHT22;11592;45.460;9.240;2022-12-20T01:53:20;6.60;99.90
22852;DHT22;11592;45.460;9.240;2022-12-20T01:55:49;6.50;99.90
22852;DHT22;11592;45.460;9.240;2022-12-20T01:58:17;6.50;99.90
22852;DHT22;11592;45.460;9.240;2022-12-20T02:00:45;6.50;99.90
22852;DHT22;11592;45.460;9.240;2022-12-20T02:03:13;6.50;99.90
22852;DHT22;11592;45.460;9.240;2022-12-20T02:05:44;6.60;99.90
22852;DHT22;11592;45.460;9.240;2022-12-20T02:08:12;6.80;99.90
22852;DHT22;11592;45.460;9.240;2022-12-20T02:13:14;6.90;99.90
22852;DHT22;11592;45.460;9.240;2022-12-20T02:15:55;6.80;99.90
22852;DHT22;11592;45.460;9.240;2022-12-20T02:24:27;6.60;99.90
22852;DHT22;11592;45.460;9.240;2022-12-20T02:34:26;6.40;99.90
22852;DHT22;11592;45.460;9.240;2022-12-20T02:36:54;6.40;99.90
22852;DHT22;11592;45.460;9.240;2022-12-20T02:39:22;6.40;99.90
22852;DHT22;11592;45.460;9.240;2022-12-20T02:44:59;6.50;99.90
22852;DHT22;11592;45.460;9.240;2022-12-20T02:47:49;6.40;99.90
22852;DHT22;11592;45.460;9.240;2022-12-20T02:50:25;6.70;99.90
22852;DHT22;11592;45.460;9.240;2022-12-20T02:52:52;6.90;99.90
22852;DHT22;11592;45.460;9.240;2022-12-20T02:55:26;7.00;99.90
22852;DHT22;11592;45.460;9.240;2022-12-20T02:58:09;6.90;99.90
22852;DHT22;11592;45.460;9.240;2022-12-20T03:00:41;6.90;99.90
22852;DHT22;11592;45.460;9.240;2022-12-20T03:03:09;7.00;99.90
22852;DHT22;11592;45.460;9.240;2022-12-20T03:05:52;6.90;99.90
22852;DHT22;11592;45.460;9.240;2022-12-20T03:08:20;6.70;99.90
22852;DHT22;11592;45.460;9.240;2022-12-20T03:10:48;6.70;99.90
22852;DHT22;11592;45.460;9.240;2022-12-20T03:13:16;6.50;99.90
22852;DHT22;11592;45.460;9.240;2022-12-20T03:15:42;6.40;99.90
22852;DHT22;11592;45.460;9.240;2022-12-20T03:18:09;6.30;99.90
22852;DHT22;11592;45.460;9.240;2022-12-20T03:20:36;6.20;99.90
22852;DHT22;11592;45.460;9.240;2022-12-20T03:23:03;6.20;99.90
22852;DHT22;11592;45.460;9.240;2022-12-20T03:25:30;6.10;99.90
22852;DHT22;11592;45.460;9.240;2022-12-20T03:27:57;6.10;99.90
22852;DHT22;11592;45.460;9.240;2022-12-20T03:30:24;6.10;99.90
22852;DHT22;11592;45.460;9.240;2022-12-20T03:32:51;6.10;99.90
22852;DHT22;11592;45.460;9.240;2022-12-20T03:35:17;6.10;99.90
22852;DHT22;11592;45.460;9.240;2022-12-20T03:37:44;6.20;99.90
22852;DHT22;11592;45.460;9.240;2022-12-20T03:40:11;6.20;99.90
22852;DHT22;11592;45.460;9.240;2022-12-20T03:42:38;6.20;99.90
22852;DHT22;11592;45.460;9.240;2022-12-20T03:45:06;6.30;99.90
22852;DHT22;11592;45.460;9.240;2022-12-20T03:47:32;6.30;99.90
22852;DHT22;11592;45.460;9.240;2022-12-20T03:49:59;6.20;99.90
22852;DHT22;11592;45.460;9.240;2022-12-20T03:52:26;6.20;99.90
22852;DHT22;11592;45.460;9.240;2022-12-20T03:54:53;6.30;99.90
22852;DHT22;11592;45.460;9.240;2022-12-20T03:57:20;6.40;99.90
22852;DHT22;11592;45.460;9.240;2022-12-20T03:59:46;6.50;99.90
22852;DHT22;11592;45.460;9.240;2022-12-20T04:02:14;6.70;99.90
22852;DHT22;11592;45.460;9.240;2022-12-20T04:04:41;6.80;99.90
22852;DHT22;11592;45.460;9.240;2022-12-20T04:07:08;6.90;99.90
22852;DHT22;11592;45.460;9.240;2022-12-20T04:09:35;6.90;99.90
22852;DHT22;11592;45.460;9.240;2022-12-20T04:12:02;6.60;99.90
22852;DHT22;11592;45.460;9.240;2022-12-20T04:14:29;6.50;99.90
22852;DHT22;11592;45.460;9.240;2022-12-20T04:16:55;6.40;99.90
22852;DHT22;11592;45.460;9.240;2022-12-20T04:19:22;6.30;99.90
22852;DHT22;11592;45.460;9.240;2022-12-20T04:21:49;6.10;99.90
22852;DHT22;11592;45.460;9.240;2022-12-20T04:24:16;6.10;99.90
22852;DHT22;11592;45.460;9.240;2022-12-20T04:26:43;6.20;99.90
22852;DHT22;11592;45.460;9.240;2022-12-20T04:29:10;6.40;99.90
22852;DHT22;11592;45.460;9.240;2022-12-20T04:31:37;6.50;99.90
22852;DHT22;11592;45.460;9.240;2022-12-20T04:34:03;6.70;99.90
22852;DHT22;11592;45.460;9.240;2022-12-20T04:36:30;6.40;99.90
22852;DHT22;11592;45.460;9.240;2022-12-20T04:38:57;6.30;99.90
22852;DHT22;11592;45.460;9.240;2022-12-20T04:41:24;6.40;99.90
22852;DHT22;11592;45.460;9.240;2022-12-20T04:43:54;6.50;99.90
22852;DHT22;11592;45.460;9.240;2022-12-20T04:46:23;6.30;99.90
22852;DHT22;11592;45.460;9.240;2022-12-20T04:48:51;6.40;99.90
22852;DHT22;11592;45.460;9.240;2022-12-20T04:51:25;6.40;99.90
22852;DHT22;11592;45.460;9.240;2022-12-20T04:53:52;6.50;99.90
22852;DHT22;11592;45.460;9.240;2022-12-20T04:56:24;6.60;99.90
22852;DHT22;11592;45.460;9.240;2022-12-20T04:58:52;6.50;99.90
22852;DHT22;11592;45.460;9.240;2022-12-20T05:01:20;6.50;99.90
22852;DHT22;11592;45.460;9.240;2022-12-20T05:03:48;6.60;99.90
22852;DHT22;11592;45.460;9.240;2022-12-20T05:06:15;6.40;99.90
22852;DHT22;11592;45.460;9.240;2022-12-20T05:08:43;6.50;99.90
22852;DHT22;11592;45.460;9.240;2022-12-20T05:11:10;6.50;99.90
22852;DHT22;11592;45.460;9.240;2022-12-20T05:13:37;6.40;99.90
22852;DHT22;11592;45.460;9.240;2022-12-20T05:16:04;6.60;99.90
22852;DHT22;11592;45.460;9.240;2022-12-20T05:18:31;6.70;99.90
22852;DHT22;11592;45.460;9.240;2022-12-20T05:20:59;6.50;99.90
22852;DHT22;11592;45.460;9.240;2022-12-20T05:23:45;6.60;99.90
22852;DHT22;11592;45.460;9.240;2022-12-20T05:26:35;6.40;99.90
22852;DHT22;11592;45.460;9.240;2022-12-20T05:29:03;6.40;99.90
22852;DHT22;11592;45.460;9.240;2022-12-20T05:31:30;6.60;99.90
22852;DHT22;11592;45.460;9.240;2022-12-20T05:33:57;6.70;99.90
22852;DHT22;11592;45.460;9.240;2022-12-20T05:36:24;6.90;99.90
22852;DHT22;11592;45.460;9.240;2022-12-20T05:38:51;6.90;99.90
22852;DHT22;11592;45.460;9.240;2022-12-20T05:41:25;7.00;99.90
22852;DHT22;11592;45.460;9.240;2022-12-20T05:43:52;7.00;99.90
22852;DHT22;11592;45.460;9.240;2022-12-20T05:46:19;7.10;99.90
22852;DHT22;11592;45.460;9.240;2022-12-20T05:48:46;7.00;99.90
22852;DHT22;11592;45.460;9.240;2022-12-20T05:51:12;7.00;99.90
22852;DHT22;11592;45.460;9.240;2022-12-20T05:53:39;6.70;99.90
22852;DHT22;11592;45.460;9.240;2022-12-20T05:56:06;6.50;99.90
22852;DHT22;11592;45.460;9.240;2022-12-20T05:58:33;6.40;99.90
22852;DHT22;11592;45.460;9.240;2022-12-20T06:01:02;6.20;99.90
22852;DHT22;11592;45.460;9.240;2022-12-20T06:03:30;6.20;99.90
22852;DHT22;11592;45.460;9.240;2022-12-20T06:05:57;6.10;99.90
22852;DHT22;11592;45.460;9.240;2022-12-20T06:08:23;6.10;99.90
22852;DHT22;11592;45.460;9.240;2022-12-20T06:10:50;6.20;99.90
22852;DHT22;11592;45.460;9.240;2022-12-20T06:13:18;6.20;99.90
22852;DHT22;11592;45.460;9.240;2022-12-20T06:15:45;6.10;99.90
22852;DHT22;11592;45.460;9.240;2022-12-20T06:18:11;6.10;99.90
22852;DHT22;11592;45.460;9.240;2022-12-20T06:20:39;6.20;99.90
22852;DHT22;11592;45.460;9.240;2022-12-20T06:23:06;6.30;99.90
22852;DHT22;11592;45.460;9.240;2022-12-20T06:25:33;6.60;99.90
22852;DHT22;11592;45.460;9.240;2022-12-20T06:28:00;6.70;99.90
22852;DHT22;11592;45.460;9.240;2022-12-20T06:30:27;6.70;99.90
22852;DHT22;11592;45.460;9.240;2022-12-20T06:33:00;6.50;99.90
22852;DHT22;11592;45.460;9.240;2022-12-20T06:35:28;6.40;99.90
22852;DHT22;11592;45.460;9.240;2022-12-20T06:37:55;6.40;99.90
22852;DHT22;11592;45.460;9.240;2022-12-20T06:40:22;6.50;99.90
22852;DHT22;11592;45.460;9.240;2022-12-20T06:42:49;6.70;99.90
22852;DHT22;11592;45.460;9.240;2022-12-20T06:45:16;6.50;99.90
22852;DHT22;11592;45.460;9.240;2022-12-20T06:47:43;6.40;99.90
22852;DHT22;11592;45.460;9.240;2022-12-20T06:50:10;6.40;99.90
22852;DHT22;11592;45.460;9.240;2022-12-20T06:52:37;6.40;99.90
22852;DHT22;11592;45.460;9.240;2022-12-20T06:55:04;6.30;99.90
22852;DHT22;11592;45.460;9.240;2022-12-20T06:57:30;6.20;99.90
22852;DHT22;11592;45.460;9.240;2022-12-20T06:59:58;6.40;99.90
22852;DHT22;11592;45.460;9.240;2022-12-20T07:02:25;6.60;99.90
22852;DHT22;11592;45.460;9.240;2022-12-20T07:04:53;6.70;99.90
22852;DHT22;11592;45.460;9.240;2022-12-20T07:07:20;6.70;99.90
22852;DHT22;11592;45.460;9.240;2022-12-20T07:09:47;6.80;99.90
22852;DHT22;11592;45.460;9.240;2022-12-20T07:12:14;6.90;99.90
22852;DHT22;11592;45.460;9.240;2022-12-20T07:14:40;6.90;99.90
22852;DHT22;11592;45.460;9.240;2022-12-20T07:17:07;6.90;99.90
22852;DHT22;11592;45.460;9.240;2022-12-20T07:19:35;7.00;99.90
22852;DHT22;11592;45.460;9.240;2022-12-20T07:22:03;7.00;99.90
22852;DHT22;11592;45.460;9.240;2022-12-20T07:24:31;6.90;99.90
22852;DHT22;11592;45.460;9.240;2022-12-20T07:26:59;7.00;99.90
22852;DHT22;11592;45.460;9.240;2022-12-20T07:29:26;7.00;99.90
22852;DHT22;11592;45.460;9.240;2022-12-20T07:31:53;7.00;99.90
22852;DHT22;11592;45.460;9.240;2022-12-20T07:34:20;7.00;99.90
22852;DHT22;11592;45.460;9.240;2022-12-20T07:36:47;7.10;99.90
22852;DHT22;11592;45.460;9.240;2022-12-20T07:39:14;7.00;99.90
22852;DHT22;11592;45.460;9.240;2022-12-20T07:41:41;7.00;99.90
22852;DHT22;11592;45.460;9.240;2022-12-20T07:44:08;6.90;99.90
22852;DHT22;11592;45.460;9.240;2022-12-20T07:46:35;7.00;99.90
22852;DHT22;11592;45.460;9.240;2022-12-20T07:49:02;7.00;99.90
22852;DHT22;11592;45.460;9.240;2022-12-20T07:51:33;6.90;99.90
22852;DHT22;11592;45.460;9.240;2022-12-20T07:56:40;6.80;99.90
22852;DHT22;11592;45.460;9.240;2022-12-20T07:59:10;7.00;99.90
22852;DHT22;11592;45.460;9.240;2022-12-20T08:01:39;7.10;99.90
22852;DHT22;11592;45.460;9.240;2022-12-20T08:04:18;7.30;99.90
22852;DHT22;11592;45.460;9.240;2022-12-20T08:06:46;7.20;99.90
22852;DHT22;11592;45.460;9.240;2022-12-20T08:09:15;7.20;99.90
22852;DHT22;11592;45.460;9.240;2022-12-20T08:11:44;7.00;99.90
22852;DHT22;11592;45.460;9.240;2022-12-20T08:14:12;7.10;99.90
22852;DHT22;11592;45.460;9.240;2022-12-20T08:16:39;7.10;99.90
22852;DHT22;11592;45.460;9.240;2022-12-20T08:19:07;7.00;99.90
22852;DHT22;11592;45.460;9.240;2022-12-20T08:21:34;7.10;99.90
22852;DHT22;11592;45.460;9.240;2022-12-20T08:24:01;7.20;99.90
22852;DHT22;11592;45.460;9.240;2022-12-20T08:26:27;7.20;99.90
22852;DHT22;11592;45.460;9.240;2022-12-20T08:28:55;7.40;99.90
22852;DHT22;11592;45.460;9.240;2022-12-20T08:31:22;7.00;99.90
22852;DHT22;11592;45.460;9.240;2022-12-20T08:33:53;6.90;99.90
22852;DHT22;11592;45.460;9.240;2022-12-20T08:36:20;6.60;99.90
22852;DHT22;11592;45.460;9.240;2022-12-20T08:38:47;6.40;99.90
22852;DHT22;11592;45.460;9.240;2022-12-20T08:41:15;6.30;99.90
22852;DHT22;11592;45.460;9.240;2022-12-20T08:43:42;6.20;99.90
22852;DHT22;11592;45.460;9.240;2022-12-20T08:46:09;6.20;99.90
22852;DHT22;11592;45.460;9.240;2022-12-20T08:48:38;6.20;99.90
22852;DHT22;11592;45.460;9.240;2022-12-20T08:51:09;6.30;99.90
22852;DHT22;11592;45.460;9.240;2022-12-20T08:53:37;6.50;99.90
22852;DHT22;11592;45.460;9.240;2022-12-20T08:56:09;6.60;99.90
22852;DHT22;11592;45.460;9.240;2022-12-20T08:58:36;6.50;99.90
22852;DHT22;11592;45.460;9.240;2022-12-20T09:01:06;6.70;99.90
22852;DHT22;11592;45.460;9.240;2022-12-20T09:03:35;6.80;99.90
22852;DHT22;11592;45.460;9.240;2022-12-20T09:06:08;6.80;99.90
22852;DHT22;11592;45.460;9.240;2022-12-20T09:08:36;6.80;99.90
22852;DHT22;11592;45.460;9.240;2022-12-20T09:11:15;6.70;99.90
22852;DHT22;11592;45.460;9.240;2022-12-20T09:13:43;6.60;99.90
22852;DHT22;11592;45.460;9.240;2022-12-20T09:16:13;6.70;99.90
22852;DHT22;11592;45.460;9.240;2022-12-20T09:18:41;6.70;99.90
22852;DHT22;11592;45.460;9.240;2022-12-20T09:21:09;6.60;99.90
22852;DHT22;11592;45.460;9.240;2022-12-20T09:23:37;6.60;99.90
22852;DHT22;11592;45.460;9.240;2022-12-20T09:26:14;6.60;99.90
22852;DHT22;11592;45.460;9.240;2022-12-20T09:28:42;6.70;99.90
22852;DHT22;11592;45.460;9.240;2022-12-20T09:31:12;6.70;99.90
22852;DHT22;11592;45.460;9.240;2022-12-20T09:33:40;6.70;99.90
22852;DHT22;11592;45.460;9.240;2022-12-20T09:36:11;6.70;99.90
22852;DHT22;11592;45.460;9.240;2022-12-20T09:38:38;6.80;99.90
22852;DHT22;11592;45.460;9.240;2022-12-20T09:41:06;6.80;99.90
22852;DHT22;11592;45.460;9.240;2022-12-20T09:43:34;6.80;99.90
22852;DHT22;11592;45.460;9.240;2022-12-20T09:46:03;6.90;99.90
22852;DHT22;11592;45.460;9.240;2022-12-20T09:48:34;7.00;99.90
22852;DHT22;11592;45.460;9.240;2022-12-20T09:57:19;7.40;99.90
22852;DHT22;11592;45.460;9.240;2022-12-20T09:59:48;7.30;99.90
22852;DHT22;11592;45.460;9.240;2022-12-20T10:02:19;7.30;99.90
22852;DHT22;11592;45.460;9.240;2022-12-20T10:05:28;7.50;99.90
22852;DHT22;11592;45.460;9.240;2022-12-20T10:22:19;8.10;99.90
22852;DHT22;11592;45.460;9.240;2022-12-20T10:25:05;8.10;99.90
22852;DHT22;11592;45.460;9.240;2022-12-20T10:27:41;8.00;99.90
22852;DHT22;11592;45.460;9.240;2022-12-20T10:30:13;8.00;99.90
22852;DHT22;11592;45.460;9.240;2022-12-20T10:32:47;8.10;99.90
22852;DHT22;11592;45.460;9.240;2022-12-20T10:38:00;7.50;99.90
22852;DHT22;11592;45.460;9.240;2022-12-20T10:43:23;7.20;99.90
22852;DHT22;11592;45.460;9.240;2022-12-20T10:46:03;7.30;99.90
22852;DHT22;11592;45.460;9.240;2022-12-20T10:48:37;7.20;99.90
22852;DHT22;11592;45.460;9.240;2022-12-20T10:53:51;7.30;99.90
22852;DHT22;11592;45.460;9.240;2022-12-20T10:56:24;7.30;99.90
22852;DHT22;11592;45.460;9.240;2022-12-20T11:01:24;7.40;99.90
22852;DHT22;11592;45.460;9.240;2022-12-20T11:04:00;7.50;99.90
22852;DHT22;11592;45.460;9.240;2022-12-20T11:06:39;7.70;99.90
22852;DHT22;11592;45.460;9.240;2022-12-20T11:09:23;8.00;99.90
22852;DHT22;11592;45.460;9.240;2022-12-20T11:12:16;8.20;99.90
22852;DHT22;11592;45.460;9.240;2022-12-20T11:14:45;8.20;99.90
22852;DHT22;11592;45.460;9.240;2022-12-20T11:17:33;8.20;99.90
22852;DHT22;11592;45.460;9.240;2022-12-20T11:20:22;8.20;99.90
22852;DHT22;11592;45.460;9.240;2022-12-20T11:39:20;7.50;99.90
22852;DHT22;11592;45.460;9.240;2022-12-20T11:42:22;7.60;99.90
22852;DHT22;11592;45.460;9.240;2022-12-20T11:55:53;7.30;99.90
22852;DHT22;11592;45.460;9.240;2022-12-20T11:58:51;7.20;99.90
22852;DHT22;11592;45.460;9.240;2022-12-20T12:01:23;7.20;99.90
22852;DHT22;11592;45.460;9.240;2022-12-20T12:04:09;7.20;99.90
22852;DHT22;11592;45.460;9.240;2022-12-20T12:06:43;7.10;99.90
22852;DHT22;11592;45.460;9.240;2022-12-20T12:12:12;7.10;99.90
22852;DHT22;11592;45.460;9.240;2022-12-20T12:15:35;7.10;99.90
22852;DHT22;11592;45.460;9.240;2022-12-20T12:23:07;7.30;99.90
22852;DHT22;11592;45.460;9.240;2022-12-20T12:25:36;7.20;99.90
22852;DHT22;11592;45.460;9.240;2022-12-20T12:28:03;7.20;99.90
22852;DHT22;11592;45.460;9.240;2022-12-20T12:30:36;7.20;99.90
22852;DHT22;11592;45.460;9.240;2022-12-20T12:33:15;7.20;99.90
22852;DHT22;11592;45.460;9.240;2022-12-20T12:46:54;7.60;99.90
22852;DHT22;11592;45.460;9.240;2022-12-20T12:49:25;7.50;99.90
22852;DHT22;11592;45.460;9.240;2022-12-20T12:51:59;7.40;99.90
22852;DHT22;11592;45.460;9.240;2022-12-20T12:54:36;7.30;99.90
22852;DHT22;11592;45.460;9.240;2022-12-20T12:57:11;7.50;99.90
22852;DHT22;11592;45.460;9.240;2022-12-20T12:59:45;7.80;99.90
22852;DHT22;11592;45.460;9.240;2022-12-20T13:10:00;8.00;99.90
22852;DHT22;11592;45.460;9.240;2022-12-20T13:20:27;7.80;99.90
22852;DHT22;11592;45.460;9.240;2022-12-20T13:25:36;8.10;99.90
22852;DHT22;11592;45.460;9.240;2022-12-20T13:30:43;8.30;99.90
22852;DHT22;11592;45.460;9.240;2022-12-20T13:36:11;8.40;99.90
22852;DHT22;11592;45.460;9.240;2022-12-20T13:39:02;8.10;99.90
22852;DHT22;11592;45.460;9.240;2022-12-20T13:41:45;7.60;99.90
22852;DHT22;11592;45.460;9.240;2022-12-20T13:46:46;7.30;99.90
22852;DHT22;11592;45.460;9.240;2022-12-20T13:49:42;7.30;99.90
22852;DHT22;11592;45.460;9.240;2022-12-20T13:52:23;7.20;99.90
22852;DHT22;11592;45.460;9.240;2022-12-20T13:54:53;7.20;99.90
22852;DHT22;11592;45.460;9.240;2022-12-20T13:57:32;7.20;99.90
22852;DHT22;11592;45.460;9.240;2022-12-20T14:00:11;7.20;99.90
22852;DHT22;11592;45.460;9.240;2022-12-20T14:02:41;7.00;99.90
22852;DHT22;11592;45.460;9.240;2022-12-20T14:05:30;7.10;99.90
22852;DHT22;11592;45.460;9.240;2022-12-20T14:08:11;7.10;99.90
22852;DHT22;11592;45.460;9.240;2022-12-20T14:10:39;7.00;99.90
22852;DHT22;11592;45.460;9.240;2022-12-20T14:13:23;7.00;99.90
22852;DHT22;11592;45.460;9.240;2022-12-20T14:15:50;6.90;99.90
22852;DHT22;11592;45.460;9.240;2022-12-20T14:18:22;7.00;99.90
22852;DHT22;11592;45.460;9.240;2022-12-20T14:20:57;7.00;99.90
22852;DHT22;11592;45.460;9.240;2022-12-20T14:23:36;7.00;99.90
22852;DHT22;11592;45.460;9.240;2022-12-20T14:26:03;7.10;99.90
22852;DHT22;11592;45.460;9.240;2022-12-20T14:28:38;7.10;99.90
22852;DHT22;11592;45.460;9.240;2022-12-20T14:31:21;7.20;99.90
22852;DHT22;11592;45.460;9.240;2022-12-20T14:33:48;7.20;99.90
22852;DHT22;11592;45.460;9.240;2022-12-20T14:38:45;7.50;99.90
22852;DHT22;11592;45.460;9.240;2022-12-20T14:41:39;7.30;99.90
22852;DHT22;11592;45.460;9.240;2022-12-20T14:46:34;7.20;99.90
22852;DHT22;11592;45.460;9.240;2022-12-20T14:49:35;7.10;99.90
22852;DHT22;11592;45.460;9.240;2022-12-20T14:52:19;7.20;99.90
22852;DHT22;11592;45.460;9.240;2022-12-20T14:54:56;7.20;99.90
22852;DHT22;11592;45.460;9.240;2022-12-20T14:57:45;7.20;99.90
22852;DHT22;11592;45.460;9.240;2022-12-20T15:00:22;7.10;99.90
22852;DHT22;11592;45.460;9.240;2022-12-20T15:08:24;7.10;99.90
22852;DHT22;11592;45.460;9.240;2022-12-20T15:13:41;7.20;99.90
22852;DHT22;11592;45.460;9.240;2022-12-20T15:16:24;7.30;99.90
22852;DHT22;11592;45.460;9.240;2022-12-20T15:18:55;7.20;99.90
22852;DHT22;11592;45.460;9.240;2022-12-20T15:21:42;7.20;99.90
22852;DHT22;11592;45.460;9.240;2022-12-20T15:24:13;7.30;99.90
22852;DHT22;11592;45.460;9.240;2022-12-20T15:26:40;7.20;99.90
22852;DHT22;11592;45.460;9.240;2022-12-20T15:29:15;7.30;99.90
22852;DHT22;11592;45.460;9.240;2022-12-20T15:31:43;7.50;99.90
22852;DHT22;11592;45.460;9.240;2022-12-20T15:36:56;7.60;99.90
22852;DHT22;11592;45.460;9.240;2022-12-20T15:39:26;7.40;99.90
22852;DHT22;11592;45.460;9.240;2022-12-20T15:41:53;7.40;99.90
22852;DHT22;11592;45.460;9.240;2022-12-20T15:44:25;7.40;99.90
22852;DHT22;11592;45.460;9.240;2022-12-20T15:46:52;7.30;99.90
22852;DHT22;11592;45.460;9.240;2022-12-20T15:49:23;7.30;99.90
22852;DHT22;11592;45.460;9.240;2022-12-20T15:51:51;7.60;99.90
22852;DHT22;11592;45.460;9.240;2022-12-20T15:54:30;7.50;99.90
22852;DHT22;11592;45.460;9.240;2022-12-20T15:57:05;7.60;99.90
22852;DHT22;11592;45.460;9.240;2022-12-20T15:59:33;7.30;99.90
22852;DHT22;11592;45.460;9.240;2022-12-20T16:02:27;7.20;99.90
22852;DHT22;11592;45.460;9.240;2022-12-20T16:04:55;7.10;99.90
22852;DHT22;11592;45.460;9.240;2022-12-20T16:07:22;7.10;99.90
22852;DHT22;11592;45.460;9.240;2022-12-20T16:09:49;7.10;99.90
22852;DHT22;11592;45.460;9.240;2022-12-20T16:12:24;7.10;99.90
22852;DHT22;11592;45.460;9.240;2022-12-20T16:14:51;7.10;99.90
22852;DHT22;11592;45.460;9.240;2022-12-20T16:17:18;7.00;99.90
22852;DHT22;11592;45.460;9.240;2022-12-20T16:19:45;7.20;99.90
22852;DHT22;11592;45.460;9.240;2022-12-20T16:22:22;7.10;99.90
22852;DHT22;11592;45.460;9.240;2022-12-20T16:24:49;7.10;99.90
22852;DHT22;11592;45.460;9.240;2022-12-20T16:27:16;7.10;99.90
22852;DHT22;11592;45.460;9.240;2022-12-20T16:29:42;7.00;99.90
22852;DHT22;11592;45.460;9.240;2022-12-20T16:32:16;6.90;99.90
22852;DHT22;11592;45.460;9.240;2022-12-20T16:34:44;6.90;99.90
22852;DHT22;11592;45.460;9.240;2022-12-20T16:37:11;7.00;99.90
22852;DHT22;11592;45.460;9.240;2022-12-20T16:39:38;7.00;99.90
22852;DHT22;11592;45.460;9.240;2022-12-20T16:42:16;6.90;99.90
22852;DHT22;11592;45.460;9.240;2022-12-20T16:44:43;6.90;99.90
22852;DHT22;11592;45.460;9.240;2022-12-20T16:47:12;7.00;99.90
22852;DHT22;11592;45.460;9.240;2022-12-20T16:49:40;7.10;99.90
22852;DHT22;11592;45.460;9.240;2022-12-20T16:52:17;7.00;99.90
22852;DHT22;11592;45.460;9.240;2022-12-20T16:54:44;7.00;99.90
22852;DHT22;11592;45.460;9.240;2022-12-20T16:57:10;6.90;99.90
22852;DHT22;11592;45.460;9.240;2022-12-20T16:59:37;6.90;99.90
22852;DHT22;11592;45.460;9.240;2022-12-20T17:02:24;6.90;99.90
22852;DHT22;11592;45.460;9.240;2022-12-20T17:04:52;6.90;99.90
22852;DHT22;11592;45.460;9.240;2022-12-20T17:07:20;6.90;99.90
22852;DHT22;11592;45.460;9.240;2022-12-20T17:09:47;6.80;99.90
22852;DHT22;11592;45.460;9.240;2022-12-20T17:12:16;6.90;99.90
22852;DHT22;11592;45.460;9.240;2022-12-20T17:14:43;6.90;99.90
22852;DHT22;11592;45.460;9.240;2022-12-20T17:17:10;6.90;99.90
22852;DHT22;11592;45.460;9.240;2022-12-20T17:19:36;7.10;99.90
22852;DHT22;11592;45.460;9.240;2022-12-20T17:22:04;7.30;99.90
22852;DHT22;11592;45.460;9.240;2022-12-20T17:24:48;7.30;99.90
22852;DHT22;11592;45.460;9.240;2022-12-20T17:27:15;7.40;99.90
22852;DHT22;11592;45.460;9.240;2022-12-20T17:29:42;7.30;99.90
22852;DHT22;11592;45.460;9.240;2022-12-20T17:32:18;7.30;99.90
22852;DHT22;11592;45.460;9.240;2022-12-20T17:34:45;7.20;99.90
22852;DHT22;11592;45.460;9.240;2022-12-20T17:37:12;7.20;99.90
22852;DHT22;11592;45.460;9.240;2022-12-20T17:39:39;7.20;99.90
22852;DHT22;11592;45.460;9.240;2022-12-20T17:42:11;7.10;99.90
22852;DHT22;11592;45.460;9.240;2022-12-20T17:44:37;6.90;99.90
22852;DHT22;11592;45.460;9.240;2022-12-20T17:47:04;7.00;99.90
22852;DHT22;11592;45.460;9.240;2022-12-20T17:49:32;7.30;99.90
22852;DHT22;11592;45.460;9.240;2022-12-20T17:51:59;7.40;99.90
22852;DHT22;11592;45.460;9.240;2022-12-20T17:54:27;7.40;99.90
22852;DHT22;11592;45.460;9.240;2022-12-20T17:57:04;7.60;99.90
22852;DHT22;11592;45.460;9.240;2022-12-20T17:59:31;7.30;99.90
22852;DHT22;11592;45.460;9.240;2022-12-20T18:01:57;7.20;99.90
22852;DHT22;11592;45.460;9.240;2022-12-20T18:04:25;7.10;99.90
22852;DHT22;11592;45.460;9.240;2022-12-20T18:06:52;7.10;99.90
22852;DHT22;11592;45.460;9.240;2022-12-20T18:09:20;7.10;99.90
22852;DHT22;11592;45.460;9.240;2022-12-20T18:11:47;7.10;99.90
22852;DHT22;11592;45.460;9.240;2022-12-20T18:14:14;7.00;99.90
22852;DHT22;11592;45.460;9.240;2022-12-20T18:16:41;7.00;99.90
22852;DHT22;11592;45.460;9.240;2022-12-20T18:19:15;7.00;99.90
22852;DHT22;11592;45.460;9.240;2022-12-20T18:21:42;7.20;99.90
22852;DHT22;11592;45.460;9.240;2022-12-20T18:24:13;7.10;99.90
22852;DHT22;11592;45.460;9.240;2022-12-20T18:26:42;7.00;99.90
22852;DHT22;11592;45.460;9.240;2022-12-20T18:29:09;7.10;99.90
22852;DHT22;11592;45.460;9.240;2022-12-20T18:31:37;7.10;99.90